Time,TemperatureF,DewpointF,PressureIn,WindDirection,WindDirectionDegrees,WindSpeedMPH,WindSpeedGustMPH,Humidity,HourlyPrecipIn,Conditions,Clouds,dailyrainin,SoftwareType,DateUTC
2013-02-12 00:00:00,41.5,31.0,30.27,WSW,240,0.0,1.0,67,0.00,,,0.00,weatherlink.com 1.10,2013-02-12 08:00:00,
2013-02-12 00:15:00,42.0,34.0,30.27,WSW,240,0.0,0.0,73,0.00,,,0.00,weatherlink.com 1.10,2013-02-12 08:15:00,
2013-02-12 00:30:00,40.9,33.0,30.28,WSW,240,0.0,0.0,72,0.00,,,0.00,weatherlink.com 1.10,2013-02-12 08:30:00,
2013-02-12 00:45:00,40.8,33.0,30.28,WSW,240,0.0,0.0,73,0.00,,,0.00,weatherlink.com 1.10,2013-02-12 08:45:00,
2013-02-12 01:00:00,40.0,33.0,30.28,WSW,240,0.0,0.0,75,0.00,,,0.00,weatherlink.com 1.10,2013-02-12 09:00:00,
2013-02-12 01:15:00,39.2,33.0,30.28,WSW,240,0.0,0.0,79,0.00,,,0.00,weatherlink.com 1.10,2013-02-12 09:15:00,
2013-02-12 01:30:00,39.1,33.0,30.28,WSW,240,0.0,0.0,78,0.00,,,0.00,weatherlink.com 1.10,2013-02-12 09:30:00,
2013-02-12 01:45:00,38.5,32.0,30.28,WSW,240,0.0,0.0,77,0.00,,,0.00,weatherlink.com 1.10,2013-02-12 09:45:00,
2013-02-12 02:00:00,38.5,32.0,30.28,WSW,240,0.0,0.0,77,0.00,,,0.00,weatherlink.com 1.10,2013-02-12 10:00:00,
2013-02-12 02:15:00,38.3,32.0,30.28,WSW,241,0.0,0.0,78,0.00,,,0.00,weatherlink.com 1.10,2013-02-12 10:15:00,
2013-02-12 02:30:00,38.1,33.0,30.28,WSW,240,0.0,0.0,81,0.00,,,0.00,weatherlink.com 1.10,2013-02-12 10:30:00,
2013-02-12 02:45:00,38.0,33.0,30.28,WSW,240,0.0,0.0,82,0.00,,,0.00,weatherlink.com 1.10,2013-02-12 10:45:00,
2013-02-12 03:15:00,38.6,32.0,30.28,WSW,240,0.0,0.0,77,0.00,,,0.00,weatherlink.com 1.10,2013-02-12 11:15:00,
2013-02-12 03:30:00,38.3,33.0,30.29,WSW,240,0.0,0.0,80,0.00,,,0.00,weatherlink.com 1.10,2013-02-12 11:30:00,
2013-02-12 03:45:00,38.4,32.0,30.28,WSW,240,0.0,0.0,77,0.00,,,0.00,weatherlink.com 1.10,2013-02-12 11:45:00,
2013-02-12 04:00:00,37.8,32.0,30.29,WSW,240,0.0,0.0,79,0.00,,,0.00,weatherlink.com 1.10,2013-02-12 12:00:00,
2013-02-12 04:15:00,37.4,32.0,30.29,WSW,241,0.0,0.0,80,0.00,,,0.00,weatherlink.com 1.10,2013-02-12 12:15:00,
2013-02-12 04:30:00,37.3,32.0,30.29,WSW,241,0.0,0.0,80,0.00,,,0.00,weatherlink.com 1.10,2013-02-12 12:30:00,
2013-02-12 04:45:00,37.1,32.0,30.30,WSW,240,0.0,0.0,81,0.00,,,0.00,weatherlink.com 1.10,2013-02-12 12:45:00,
2013-02-12 05:00:00,37.2,32.0,30.30,WSW,240,0.0,0.0,81,0.00,,,0.00,weatherlink.com 1.10,2013-02-12 13:00:00,
2013-02-12 05:15:00,37.1,32.0,30.30,WSW,240,0.0,0.0,82,0.00,,,0.00,weatherlink.com 1.10,2013-02-12 13:15:00,
2013-02-12 05:31:00,36.7,32.0,30.31,WSW,240,0.0,0.0,82,0.00,,,0.00,weatherlink.com 1.10,2013-02-12 13:31:00,
2013-02-12 05:47:00,36.3,32.0,30.31,WSW,240,0.0,0.0,83,0.00,,,0.00,weatherlink.com 1.10,2013-02-12 13:47:00,
2013-02-12 06:00:00,36.4,31.0,30.31,WSW,240,0.0,0.0,82,0.00,,,0.00,weatherlink.com 1.10,2013-02-12 14:00:00,
2013-02-12 06:15:00,37.0,32.0,30.32,WSW,240,0.0,0.0,81,0.00,,,0.00,weatherlink.com 1.10,2013-02-12 14:15:00,
2013-02-12 06:30:00,36.9,32.0,30.32,WSW,240,0.0,0.0,81,0.00,,,0.00,weatherlink.com 1.10,2013-02-12 14:30:00,
2013-02-12 06:45:00,37.0,32.0,30.33,WSW,240,0.0,0.0,82,0.00,,,0.00,weatherlink.com 1.10,2013-02-12 14:45:00,
2013-02-12 07:00:00,37.2,32.0,30.34,WSW,240,0.0,0.0,82,0.00,,,0.00,weatherlink.com 1.10,2013-02-12 15:00:00,
2013-02-12 07:16:00,38.7,33.0,30.34,SW,221,0.0,1.0,80,0.00,,,0.00,weatherlink.com 1.10,2013-02-12 15:16:00,
2013-02-12 07:31:00,40.3,34.0,30.35,SW,221,0.0,0.0,79,0.00,,,0.00,weatherlink.com 1.10,2013-02-12 15:31:00,
2013-02-12 07:46:00,42.7,35.0,30.36,SW,221,0.0,1.0,75,0.00,,,0.00,weatherlink.com 1.10,2013-02-12 15:46:00,
2013-02-12 08:01:00,48.4,36.0,30.36,ESE,111,0.0,1.0,63,0.00,,,0.00,weatherlink.com 1.10,2013-02-12 16:01:00,
2013-02-12 08:16:00,52.2,36.0,30.36,ESE,112,0.0,1.0,55,0.00,,,0.00,weatherlink.com 1.10,2013-02-12 16:16:00,
2013-02-12 08:31:00,55.1,37.0,30.36,WSW,248,0.0,1.0,50,0.00,,,0.00,weatherlink.com 1.10,2013-02-12 16:31:00,
2013-02-12 08:46:00,56.7,38.0,30.37,SSE,165,1.0,1.0,50,0.00,,,0.00,weatherlink.com 1.10,2013-02-12 16:46:00,
2013-02-12 09:01:00,57.5,39.0,30.37,East,80,0.0,2.0,51,0.00,,,0.00,weatherlink.com 1.10,2013-02-12 17:01:00,
2013-02-12 09:16:00,57.5,38.0,30.37,SSE,165,1.0,3.0,48,0.00,,,0.00,weatherlink.com 1.10,2013-02-12 17:16:00,
2013-02-12 09:31:00,58.6,39.0,30.38,SSE,165,2.0,3.0,49,0.00,,,0.00,weatherlink.com 1.10,2013-02-12 17:31:00,
2013-02-12 09:46:00,58.1,39.0,30.37,East,85,0.0,5.0,49,0.00,,,0.00,weatherlink.com 1.10,2013-02-12 17:46:00,
2013-02-12 10:01:00,58.7,40.0,30.37,South,175,2.0,4.0,51,0.00,,,0.00,weatherlink.com 1.10,2013-02-12 18:01:00,
2013-02-12 10:16:00,59.0,41.0,30.37,SSE,148,0.0,5.0,52,0.00,,,0.00,weatherlink.com 1.10,2013-02-12 18:16:00,
2013-02-12 10:31:00,61.0,42.0,30.37,SSW,208,0.0,1.0,50,0.00,,,0.00,weatherlink.com 1.10,2013-02-12 18:31:00,
2013-02-12 10:47:00,60.8,40.0,30.37,South,186,2.0,4.0,46,0.00,,,0.00,weatherlink.com 1.10,2013-02-12 18:47:00,
2013-02-12 11:01:00,60.1,42.0,30.36,South,172,1.0,3.0,51,0.00,,,0.00,weatherlink.com 1.10,2013-02-12 19:01:00,
2013-02-12 11:17:00,62.0,42.0,30.35,North,353,2.0,2.0,48,0.00,,,0.00,weatherlink.com 1.10,2013-02-12 19:17:00,
2013-02-12 11:32:00,61.9,41.0,30.35,SE,140,1.0,2.0,47,0.00,,,0.00,weatherlink.com 1.10,2013-02-12 19:32:00,
2013-02-12 11:46:00,62.4,41.0,30.34,South,172,1.0,3.0,45,0.00,,,0.00,weatherlink.com 1.10,2013-02-12 19:46:00,
2013-02-12 12:01:00,62.8,41.0,30.33,NW,304,0.0,5.0,45,0.00,,,0.00,weatherlink.com 1.10,2013-02-12 20:01:00,
2013-02-12 12:16:00,63.8,41.0,30.32,South,183,0.0,3.0,44,0.00,,,0.00,weatherlink.com 1.10,2013-02-12 20:16:00,
2013-02-12 12:32:00,64.4,39.0,30.31,WNW,301,0.0,5.0,40,0.00,,,0.00,weatherlink.com 1.10,2013-02-12 20:32:00,
2013-02-12 12:47:00,64.2,39.0,30.30,SSW,208,0.0,3.0,39,0.00,,,0.00,weatherlink.com 1.10,2013-02-12 20:47:00,
2013-02-12 13:01:00,65.1,37.0,30.30,WSW,238,0.0,3.0,36,0.00,,,0.00,weatherlink.com 1.10,2013-02-12 21:01:00,
2013-02-12 13:17:00,64.9,40.0,30.29,ENE,67,0.0,4.0,40,0.00,,,0.00,weatherlink.com 1.10,2013-02-12 21:17:00,
2013-02-12 13:32:00,64.5,39.0,30.29,North,357,0.0,2.0,39,0.00,,,0.00,weatherlink.com 1.10,2013-02-12 21:32:00,
2013-02-12 13:47:00,63.6,40.0,30.28,NW,319,0.0,2.0,42,0.00,,,0.00,weatherlink.com 1.10,2013-02-12 21:47:00,
2013-02-12 14:02:00,63.1,42.0,30.28,WNW,284,0.0,2.0,46,0.00,,,0.00,weatherlink.com 1.10,2013-02-12 22:02:00,
2013-02-12 14:17:00,62.5,40.0,30.28,SSE,153,0.0,3.0,44,0.00,,,0.00,weatherlink.com 1.10,2013-02-12 22:17:00,
2013-02-12 14:32:00,62.5,42.0,30.27,SW,224,0.0,0.0,48,0.00,,,0.00,weatherlink.com 1.10,2013-02-12 22:32:00,
2013-02-12 14:47:00,61.1,42.0,30.27,WNW,293,0.0,2.0,50,0.00,,,0.00,weatherlink.com 1.10,2013-02-12 22:47:00,
2013-02-12 15:02:00,61.0,42.0,30.27,SSW,194,0.0,3.0,50,0.00,,,0.00,weatherlink.com 1.10,2013-02-12 23:02:00,
2013-02-12 15:17:00,60.4,41.0,30.27,WSW,253,1.0,1.0,50,0.00,,,0.00,weatherlink.com 1.10,2013-02-12 23:17:00,
2013-02-12 15:32:00,60.3,40.0,30.27,West,275,1.0,1.0,48,0.00,,,0.00,weatherlink.com 1.10,2013-02-12 23:32:00,
2013-02-12 15:47:00,59.6,39.0,30.27,WSW,252,0.0,2.0,47,0.00,,,0.00,weatherlink.com 1.10,2013-02-12 23:47:00,
2013-02-12 16:02:00,59.2,37.0,30.27,WNW,288,1.0,2.0,44,0.00,,,0.00,weatherlink.com 1.10,2013-02-13 00:02:00,
2013-02-12 16:17:00,58.8,36.0,30.27,West,281,0.0,2.0,42,0.00,,,0.00,weatherlink.com 1.10,2013-02-13 00:17:00,
2013-02-12 16:32:00,58.4,35.0,30.27,West,276,1.0,1.0,41,0.00,,,0.00,weatherlink.com 1.10,2013-02-13 00:32:00,
2013-02-12 16:47:00,57.9,34.0,30.27,West,276,0.0,1.0,40,0.00,,,0.00,weatherlink.com 1.10,2013-02-13 00:47:00,
2013-02-12 17:02:00,57.4,34.0,30.27,West,276,0.0,1.0,42,0.00,,,0.00,weatherlink.com 1.10,2013-02-13 01:02:00,
2013-02-12 17:17:00,56.9,36.0,30.27,West,271,0.0,1.0,45,0.00,,,0.00,weatherlink.com 1.10,2013-02-13 01:17:00,
2013-02-12 17:32:00,56.0,39.0,30.28,West,271,0.0,1.0,54,0.00,,,0.00,weatherlink.com 1.10,2013-02-13 01:32:00,
2013-02-12 17:47:00,54.8,40.0,30.28,West,271,0.0,0.0,57,0.00,,,0.00,weatherlink.com 1.10,2013-02-13 01:47:00,
2013-02-12 18:17:00,52.5,41.0,30.28,West,271,0.0,0.0,64,0.00,,,0.00,weatherlink.com 1.10,2013-02-13 02:17:00,
2013-02-12 18:48:00,50.8,41.0,30.29,West,271,0.0,0.0,70,0.00,,,0.00,weatherlink.com 1.10,2013-02-13 02:48:00,
2013-02-12 19:02:00,50.0,41.0,30.29,West,271,0.0,0.0,71,0.00,,,0.00,weatherlink.com 1.10,2013-02-13 03:02:00,
2013-02-12 19:17:00,49.3,41.0,30.29,West,271,0.0,0.0,73,0.00,,,0.00,weatherlink.com 1.10,2013-02-13 03:17:00,
2013-02-12 19:47:00,47.8,41.0,30.30,West,272,0.0,0.0,76,0.00,,,0.00,weatherlink.com 1.10,2013-02-13 03:47:00,
2013-02-12 20:02:00,47.2,40.0,30.30,West,271,0.0,0.0,77,0.00,,,0.00,weatherlink.com 1.10,2013-02-13 04:02:00,
2013-02-12 20:17:00,46.6,41.0,30.30,West,271,0.0,0.0,80,0.00,,,0.00,weatherlink.com 1.10,2013-02-13 04:17:00,
2013-02-12 20:32:00,46.1,40.0,30.30,West,271,0.0,0.0,80,0.00,,,0.00,weatherlink.com 1.10,2013-02-13 04:32:00,
2013-02-12 20:47:00,46.0,40.0,30.30,West,271,0.0,0.0,79,0.00,,,0.00,weatherlink.com 1.10,2013-02-13 04:47:00,
2013-02-12 21:02:00,45.4,39.0,30.30,West,272,0.0,0.0,78,0.00,,,0.00,weatherlink.com 1.10,2013-02-13 05:02:00,
2013-02-12 21:17:00,44.9,39.0,30.31,West,271,0.0,0.0,80,0.00,,,0.00,weatherlink.com 1.10,2013-02-13 05:17:00,
2013-02-12 21:32:00,44.7,39.0,30.31,West,271,0.0,0.0,81,0.00,,,0.00,weatherlink.com 1.10,2013-02-13 05:32:00,
2013-02-12 21:47:00,44.4,39.0,30.31,West,271,0.0,0.0,81,0.00,,,0.00,weatherlink.com 1.10,2013-02-13 05:47:00,
2013-02-12 22:02:00,43.9,39.0,30.31,West,271,0.0,0.0,82,0.00,,,0.00,weatherlink.com 1.10,2013-02-13 06:02:00,
2013-02-12 22:17:00,43.6,38.0,30.30,West,271,0.0,0.0,82,0.00,,,0.00,weatherlink.com 1.10,2013-02-13 06:17:00,
2013-02-12 22:32:00,43.3,39.0,30.30,West,271,0.0,0.0,83,0.00,,,0.00,weatherlink.com 1.10,2013-02-13 06:32:00,
2013-02-12 22:47:00,42.8,38.0,30.30,West,272,0.0,0.0,83,0.00,,,0.00,weatherlink.com 1.10,2013-02-13 06:47:00,
2013-02-12 23:02:00,42.5,38.0,30.30,West,272,0.0,0.0,83,0.00,,,0.00,weatherlink.com 1.10,2013-02-13 07:02:00,
2013-02-12 23:17:00,42.2,37.0,30.30,West,271,0.0,0.0,83,0.00,,,0.00,weatherlink.com 1.10,2013-02-13 07:17:00,
2013-02-12 23:32:00,42.2,37.0,30.30,West,271,0.0,0.0,81,0.00,,,0.00,weatherlink.com 1.10,2013-02-13 07:32:00,
2013-02-12 23:47:00,41.9,37.0,30.29,West,271,0.0,0.0,83,0.00,,,0.00,weatherlink.com 1.10,2013-02-13 07:47:00,